Beijing, China
Current Conditions -  °F | °C
As of 5:00 AM on Monday 24 Nov 2014 (Local Time) from ZBAA Reporting Station
Clear Clear  
Wind Chill: 19°   Ceiling: Unl
Heat Index: 27°   Visibility: 4mi
Dew Point: 23°   Wind: 7mph
Humidity: 86%   Direction: 360°N
Pressure: 30.36"   Gusts: NA
Location:  39.93°N, 116.4°E
Report Text: ZBAA 232100Z 36003MPS 6000 NSC M03/M05 Q1028 NOSIG
Loading
Personal Weather Stations






























Interactive Weather Map New forecast layout! Learn more

10-Day Weather Forecast

Advertisements
Track Severe Weather on mobile